Time;durP1;ratioP1;P1;durP2;ratioP2;P2;SDS_P1;SDS_P2;PMS_P1;PMS_P2;Temp;Humidity;BMP_temperature;BMP_pressure;BME280_temperature;BME280_humidity;BME280_pressure;Samples;Min_cycle;Max_cycle;Signal;HPM_P1;HPM_P2
2023/06/13 00:01:48;;;;;;;;;;;20.30;69.20;;;;;;5026134;28;913;-70
2023/06/13 00:04:23;;;;;;;;;;;20.30;69.20;;;;;;5027919;28;1269;-70
2023/06/13 00:06:57;;;;;;;;;;;20.30;69.20;;;;;;5026707;28;876;-70
2023/06/13 00:09:23;;;;;;;;;;;20.30;69.20;;;;;;5027637;28;914;-70
2023/06/13 00:11:52;;;;;;;;;;;20.20;69.10;;;;;;5024673;28;1529;-70
2023/06/13 00:14:18;;;;;;;;;;;20.20;69.10;;;;;;5028307;28;1207;-70
2023/06/13 00:16:43;;;;;;;;;;;20.30;69.20;;;;;;5023811;28;884;-70
2023/06/13 00:19:12;;;;;;;;;;;20.30;69.20;;;;;;5026547;28;1969;-70
2023/06/13 00:21:38;;;;;;;;;;;20.20;69.10;;;;;;5028102;28;828;-70
2023/06/13 00:24:04;;;;;;;;;;;20.20;69.20;;;;;;5028815;28;1291;-70
2023/06/13 00:26:29;;;;;;;;;;;20.30;69.20;;;;;;5029694;28;872;-70
2023/06/13 00:28:55;;;;;;;;;;;20.30;69.20;;;;;;5031893;28;888;-70
2023/06/13 00:31:20;;;;;;;;;;;20.20;69.20;;;;;;5028074;28;797;-70
2023/06/13 00:33:50;;;;;;;;;;;20.20;69.10;;;;;;5030738;28;1344;-70
2023/06/13 00:36:16;;;;;;;;;;;20.20;69.20;;;;;;5028976;28;875;-70
2023/06/13 00:38:42;;;;;;;;;;;20.30;69.20;;;;;;5030944;28;1905;-70
2023/06/13 00:41:08;;;;;;;;;;;20.30;69.20;;;;;;5032209;28;983;-69
2023/06/13 00:43:34;;;;;;;;;;;20.30;69.20;;;;;;5031857;28;1359;-70
2023/06/13 00:46:00;;;;;;;;;;;20.30;69.20;;;;;;5029043;28;873;-70
2023/06/13 00:48:26;;;;;;;;;;;20.20;69.20;;;;;;5031765;28;1392;-71
2023/06/13 00:50:52;;;;;;;;;;;20.20;69.20;;;;;;5028799;28;1309;-71
2023/06/13 00:53:19;;;;;;;;;;;20.30;69.20;;;;;;5015319;28;1378;-71
2023/06/13 00:55:45;;;;;;;;;;;20.30;69.20;;;;;;5025814;28;1220;-70
2023/06/13 00:58:11;;;;;;;;;;;20.30;69.30;;;;;;5028058;28;1336;-69
2023/06/13 01:00:37;;;;;;;;;;;20.20;69.20;;;;;;5025875;28;1958;-70
2023/06/13 01:03:15;;;;;;;;;;;20.30;69.20;;;;;;5022285;28;1615;-71
2023/06/13 01:05:47;;;;;;;;;;;20.30;69.20;;;;;;5031880;28;1386;-72
2023/06/13 01:08:13;;;;;;;;;;;20.20;69.20;;;;;;5015063;28;1472;-69
2023/06/13 01:10:40;;;;;;;;;;;20.20;69.20;;;;;;5030708;28;1267;-68
2023/06/13 01:13:28;;;;;;;;;;;20.30;69.20;;;;;;5031359;28;832;-68
2023/06/13 01:15:54;;;;;;;;;;;20.20;69.20;;;;;;5026696;28;911;-68
2023/06/13 01:18:22;;;;;;;;;;;20.30;69.30;;;;;;5025606;28;911;-68
2023/06/13 01:20:48;;;;;;;;;;;20.20;69.20;;;;;;5030867;28;1906;-68
2023/06/13 01:23:18;;;;;;;;;;;20.30;69.30;;;;;;5031034;28;1417;-69
2023/06/13 01:26:02;;;;;;;;;;;20.20;69.20;;;;;;5014129;28;1281;-69
2023/06/13 01:28:32;;;;;;;;;;;20.30;69.30;;;;;;5027905;28;824;-69
2023/06/13 01:30:57;;;;;;;;;;;20.20;69.20;;;;;;5026890;28;844;-68
2023/06/13 01:33:23;;;;;;;;;;;20.30;69.30;;;;;;5029998;28;1410;-68
2023/06/13 01:35:49;;;;;;;;;;;20.30;69.30;;;;;;5027891;28;921;-68
2023/06/13 01:38:15;;;;;;;;;;;20.30;69.30;;;;;;5030412;28;1335;-68
2023/06/13 01:40:40;;;;;;;;;;;20.30;69.30;;;;;;5030725;28;1973;-68
2023/06/13 01:43:05;;;;;;;;;;;20.20;69.20;;;;;;5030709;28;873;-69
2023/06/13 01:45:31;;;;;;;;;;;20.30;69.30;;;;;;5030419;28;1337;-69
2023/06/13 01:48:15;;;;;;;;;;;20.20;69.20;;;;;;5029736;28;876;-68
2023/06/13 01:50:41;;;;;;;;;;;20.30;69.30;;;;;;5028969;28;927;-68
2023/06/13 01:53:08;;;;;;;;;;;20.20;69.20;;;;;;5029661;28;899;-68
2023/06/13 01:55:34;;;;;;;;;;;20.20;69.20;;;;;;5026624;28;1362;-68
2023/06/13 01:58:08;;;;;;;;;;;20.30;69.30;;;;;;5030433;28;795;-68
2023/06/13 02:00:34;;;;;;;;;;;20.30;69.30;;;;;;5028437;28;1906;-68
2023/06/13 02:03:00;;;;;;;;;;;20.20;69.20;;;;;;5029121;28;828;-68
2023/06/13 02:05:26;;;;;;;;;;;20.20;69.20;;;;;;5029737;28;1343;-69
2023/06/13 02:07:53;;;;;;;;;;;20.20;69.30;;;;;;5028409;28;900;-69
2023/06/13 02:10:19;;;;;;;;;;;20.30;69.30;;;;;;5029289;28;1279;-69
2023/06/13 02:12:44;;;;;;;;;;;20.20;69.20;;;;;;5030478;28;851;-68
2023/06/13 02:15:10;;;;;;;;;;;20.20;69.20;;;;;;5026634;28;1314;-68
2023/06/13 02:17:36;;;;;;;;;;;20.20;69.20;;;;;;5027717;28;820;-68
2023/06/13 02:20:01;;;;;;;;;;;20.20;69.20;;;;;;5029189;28;1894;-69
2023/06/13 02:22:27;;;;;;;;;;;20.20;69.20;;;;;;5028786;28;1185;-68
2023/06/13 02:24:52;;;;;;;;;;;20.20;69.30;;;;;;5030961;28;1394;-69
2023/06/13 02:27:17;;;;;;;;;;;20.30;69.30;;;;;;5031346;28;1066;-68
2023/06/13 02:29:44;;;;;;;;;;;20.20;69.20;;;;;;5028164;28;883;-68
2023/06/13 02:32:09;;;;;;;;;;;20.30;69.30;;;;;;5028772;28;928;-68
2023/06/13 02:34:35;;;;;;;;;;;20.20;69.20;;;;;;5028263;28;1383;-68
2023/06/13 02:37:00;;;;;;;;;;;20.20;69.20;;;;;;5028897;28;791;-69
2023/06/13 02:39:26;;;;;;;;;;;20.20;69.20;;;;;;5025499;28;1980;-68
2023/06/13 02:41:51;;;;;;;;;;;20.30;69.30;;;;;;5024349;28;923;-68
2023/06/13 02:44:16;;;;;;;;;;;20.30;69.30;;;;;;5027678;28;1359;-68
2023/06/13 02:46:42;;;;;;;;;;;20.30;69.30;;;;;;5028918;28;930;-68
2023/06/13 02:49:07;;;;;;;;;;;20.20;69.30;;;;;;5027425;28;899;-69
2023/06/13 02:51:34;;;;;;;;;;;20.20;69.20;;;;;;5029806;28;891;-68
2023/06/13 02:54:01;;;;;;;;;;;20.20;69.30;;;;;;5029299;28;1354;-68
2023/06/13 02:56:28;;;;;;;;;;;20.20;69.30;;;;;;5027644;28;1002;-68
2023/06/13 02:58:54;;;;;;;;;;;20.20;69.30;;;;;;5029794;28;1894;-68
2023/06/13 03:01:19;;;;;;;;;;;20.20;69.30;;;;;;5025132;28;1414;-68
2023/06/13 03:03:47;;;;;;;;;;;20.20;69.30;;;;;;5026991;28;1240;-69
2023/06/13 03:06:16;;;;;;;;;;;20.20;69.30;;;;;;5028493;28;903;-69
2023/06/13 03:08:42;;;;;;;;;;;20.30;69.30;;;;;;5027234;28;813;-68
2023/06/13 03:11:07;;;;;;;;;;;20.20;69.30;;;;;;5024060;28;1301;-68
2023/06/13 03:13:33;;;;;;;;;;;20.20;69.30;;;;;;5029201;28;1297;-68
2023/06/13 03:16:01;;;;;;;;;;;20.30;69.50;;;;;;5023914;28;888;-69
2023/06/13 03:18:26;;;;;;;;;;;20.30;69.70;;;;;;5016683;28;945;-69
2023/06/13 03:20:52;;;;;;;;;;;20.40;69.80;;;;;;5024291;28;1898;-68
2023/06/13 03:23:17;;;;;;;;;;;20.40;70.00;;;;;;5022243;28;1601;-68
2023/06/13 03:25:43;;;;;;;;;;;20.40;70.10;;;;;;5025741;28;1434;-68
2023/06/13 03:28:09;;;;;;;;;;;20.40;70.20;;;;;;5006997;28;1387;-69
2023/06/13 03:30:35;;;;;;;;;;;20.50;70.20;;;;;;5025027;28;1415;-69
2023/06/13 03:33:00;;;;;;;;;;;20.50;70.20;;;;;;5020543;28;1366;-69
2023/06/13 03:35:26;;;;;;;;;;;20.50;70.20;;;;;;5025853;28;1399;-68
2023/06/13 03:37:51;;;;;;;;;;;20.50;70.00;;;;;;5024086;28;1351;-68
2023/06/13 03:40:17;;;;;;;;;;;20.50;70.00;;;;;;5025331;28;1967;-68
2023/06/13 03:42:42;;;;;;;;;;;20.60;70.20;;;;;;5027818;28;819;-68
2023/06/13 03:45:09;;;;;;;;;;;20.60;70.60;;;;;;5026683;28;1277;-68
2023/06/13 03:47:34;;;;;;;;;;;20.60;70.70;;;;;;5025133;28;1788;-68
2023/06/13 03:50:00;;;;;;;;;;;20.60;71.20;;;;;;5028758;28;891;-68
2023/06/13 03:52:25;;;;;;;;;;;20.60;70.80;;;;;;5026480;28;911;-68
2023/06/13 03:54:51;;;;;;;;;;;20.60;70.80;;;;;;5025780;28;1270;-68
2023/06/13 03:57:17;;;;;;;;;;;20.60;70.80;;;;;;5024760;28;867;-68
2023/06/13 03:59:42;;;;;;;;;;;20.60;70.90;;;;;;5028658;28;1902;-68
2023/06/13 04:02:08;;;;;;;;;;;20.60;70.90;;;;;;5031808;28;917;-68
2023/06/13 04:04:33;;;;;;;;;;;20.70;70.90;;;;;;5030774;28;1344;-68
2023/06/13 04:07:04;;;;;;;;;;;20.70;71.00;;;;;;5033139;28;928;-68
2023/06/13 04:09:29;;;;;;;;;;;20.70;71.20;;;;;;5033660;28;1364;-68
2023/06/13 04:11:55;;;;;;;;;;;20.70;71.40;;;;;;5031395;28;912;-68
2023/06/13 04:14:20;;;;;;;;;;;20.70;71.40;;;;;;5030854;28;1369;-69
2023/06/13 04:16:46;;;;;;;;;;;20.70;71.50;;;;;;5030394;28;797;-68
2023/06/13 04:19:18;;;;;;;;;;;20.70;71.80;;;;;;5031134;28;1906;-68
2023/06/13 04:21:46;;;;;;;;;;;20.70;71.90;;;;;;5030618;28;860;-68
2023/06/13 04:24:15;;;;;;;;;;;20.70;71.80;;;;;;5030836;28;1265;-68
2023/06/13 04:26:41;;;;;;;;;;;20.70;71.70;;;;;;5025378;28;1230;-68
2023/06/13 04:29:09;;;;;;;;;;;20.70;71.70;;;;;;5030383;28;871;-68
2023/06/13 04:31:35;;;;;;;;;;;20.70;71.70;;;;;;5031329;28;884;-69
2023/06/13 04:34:03;;;;;;;;;;;20.70;71.60;;;;;;5031254;28;1438;-68
2023/06/13 04:36:32;;;;;;;;;;;20.70;71.70;;;;;;5021761;28;884;-68
2023/06/13 04:39:04;;;;;;;;;;;20.70;71.70;;;;;;5033233;28;1883;-69
2023/06/13 04:41:33;;;;;;;;;;;20.70;72.00;;;;;;5030824;28;840;-69
2023/06/13 04:43:59;;;;;;;;;;;20.70;72.20;;;;;;5030709;28;1276;-69
2023/06/13 04:46:24;;;;;;;;;;;20.70;72.30;;;;;;5031164;28;1070;-69
2023/06/13 04:48:50;;;;;;;;;;;20.80;72.20;;;;;;5028969;28;789;-68
2023/06/13 04:51:15;;;;;;;;;;;20.80;72.10;;;;;;5028252;28;923;-69
2023/06/13 04:53:41;;;;;;;;;;;20.80;72.20;;;;;;5029400;28;1266;-69
2023/06/13 04:56:06;;;;;;;;;;;20.80;72.30;;;;;;5029987;28;1499;-69
2023/06/13 04:58:32;;;;;;;;;;;20.80;72.30;;;;;;5031175;28;796;-68
2023/06/13 05:00:59;;;;;;;;;;;20.80;72.20;;;;;;5031124;28;1902;-69
2023/06/13 05:03:25;;;;;;;;;;;20.80;72.30;;;;;;5031270;28;1272;-69
2023/06/13 05:05:51;;;;;;;;;;;20.80;72.30;;;;;;5031244;28;880;-69
2023/06/13 05:08:19;;;;;;;;;;;20.80;72.50;;;;;;5031587;28;1012;-69
2023/06/13 05:10:45;;;;;;;;;;;20.80;72.50;;;;;;5025732;28;1302;-69
2023/06/13 05:13:11;;;;;;;;;;;20.80;72.40;;;;;;5024813;28;1112;-70
2023/06/13 05:15:42;;;;;;;;;;;20.80;72.30;;;;;;5031029;28;1328;-70
2023/06/13 05:18:12;;;;;;;;;;;20.90;72.30;;;;;;5029557;28;911;-69
2023/06/13 05:20:37;;;;;;;;;;;20.90;72.30;;;;;;5029207;28;2027;-69
2023/06/13 05:23:03;;;;;;;;;;;20.90;72.20;;;;;;5028378;28;938;-69
2023/06/13 05:25:28;;;;;;;;;;;20.90;72.20;;;;;;5030114;28;1303;-69
2023/06/13 05:27:54;;;;;;;;;;;20.90;72.00;;;;;;5030026;28;860;-69
2023/06/13 05:30:20;;;;;;;;;;;20.90;72.00;;;;;;5030493;28;1019;-69
2023/06/13 05:32:45;;;;;;;;;;;20.90;72.00;;;;;;5030500;28;833;-69
2023/06/13 05:35:11;;;;;;;;;;;20.90;72.20;;;;;;5027595;28;1360;-69
2023/06/13 05:37:39;;;;;;;;;;;20.90;72.20;;;;;;5026710;28;871;-69
2023/06/13 05:40:05;;;;;;;;;;;20.90;72.10;;;;;;5030052;28;1961;-69
2023/06/13 05:42:31;;;;;;;;;;;20.90;72.10;;;;;;5030277;28;1582;-69
2023/06/13 05:44:57;;;;;;;;;;;20.90;72.10;;;;;;5026676;28;1452;-69
2023/06/13 05:47:23;;;;;;;;;;;20.90;72.20;;;;;;5031072;28;991;-69
2023/06/13 05:49:48;;;;;;;;;;;20.90;72.20;;;;;;5030465;28;1050;-69
2023/06/13 05:52:13;;;;;;;;;;;20.90;72.30;;;;;;5030197;28;881;-69
2023/06/13 05:54:39;;;;;;;;;;;20.90;72.40;;;;;;5029727;28;1280;-69
2023/06/13 05:57:04;;;;;;;;;;;20.90;72.50;;;;;;5030545;28;1248;-69
2023/06/13 05:59:30;;;;;;;;;;;20.90;72.90;;;;;;5030215;28;1926;-69
2023/06/13 06:01:55;;;;;;;;;;;20.90;73.10;;;;;;5028197;28;872;-69
2023/06/13 06:04:21;;;;;;;;;;;20.90;73.10;;;;;;5028651;28;1377;-69
2023/06/13 06:06:47;;;;;;;;;;;20.90;73.00;;;;;;5026131;28;848;-69
2023/06/13 06:09:12;;;;;;;;;;;21.00;73.00;;;;;;5030184;28;852;-69
2023/06/13 06:11:38;;;;;;;;;;;21.00;72.90;;;;;;5030222;28;1412;-69
2023/06/13 06:14:03;;;;;;;;;;;21.00;72.80;;;;;;5029207;28;1272;-69
2023/06/13 06:16:29;;;;;;;;;;;21.00;72.70;;;;;;5029351;28;1593;-69
2023/06/13 06:18:54;;;;;;;;;;;21.00;72.60;;;;;;5029886;28;1902;-68
2023/06/13 06:21:20;;;;;;;;;;;21.00;72.50;;;;;;5029011;28;867;-69
2023/06/13 06:23:45;;;;;;;;;;;21.00;72.50;;;;;;5027045;28;1266;-69
2023/06/13 06:26:11;;;;;;;;;;;20.90;72.50;;;;;;5030708;28;810;-69
2023/06/13 06:28:37;;;;;;;;;;;20.90;72.60;;;;;;5021334;28;966;-69
2023/06/13 06:31:05;;;;;;;;;;;20.90;72.70;;;;;;5029551;28;899;-69
2023/06/13 06:33:30;;;;;;;;;;;20.90;72.70;;;;;;5030219;28;1345;-69
2023/06/13 06:35:56;;;;;;;;;;;20.90;72.70;;;;;;5028533;28;898;-70
2023/06/13 06:38:21;;;;;;;;;;;20.90;72.70;;;;;;5030234;28;1487;-69
2023/06/13 06:40:47;;;;;;;;;;;20.90;72.80;;;;;;5029501;28;1902;-69
2023/06/13 06:43:12;;;;;;;;;;;20.90;72.80;;;;;;5030359;28;850;-69
2023/06/13 06:45:38;;;;;;;;;;;20.90;72.70;;;;;;5029649;28;1240;-69
2023/06/13 06:48:03;;;;;;;;;;;21.00;72.80;;;;;;5026308;28;1026;-69
2023/06/13 06:50:29;;;;;;;;;;;20.90;72.70;;;;;;5028233;28;896;-69
2023/06/13 06:52:55;;;;;;;;;;;21.00;72.70;;;;;;5029421;28;856;-69
2023/06/13 06:55:20;;;;;;;;;;;21.00;72.70;;;;;;5026995;28;1257;-69
2023/06/13 06:57:46;;;;;;;;;;;21.00;72.80;;;;;;5029570;28;824;-69
2023/06/13 07:00:14;;;;;;;;;;;21.00;72.80;;;;;;5022061;28;1907;-69
2023/06/13 07:02:43;;;;;;;;;;;21.00;72.70;;;;;;5028906;28;1187;-69
2023/06/13 07:05:08;;;;;;;;;;;21.00;72.70;;;;;;5028025;28;1330;-69
2023/06/13 07:07:34;;;;;;;;;;;21.00;72.80;;;;;;5027148;28;863;-68
2023/06/13 07:09:59;;;;;;;;;;;21.00;72.80;;;;;;5027387;28;1311;-68
2023/06/13 07:12:25;;;;;;;;;;;21.00;72.90;;;;;;5025933;28;875;-69
2023/06/13 07:14:50;;;;;;;;;;;21.00;72.80;;;;;;5027778;28;2167;-69
2023/06/13 07:17:16;;;;;;;;;;;21.00;73.60;;;;;;5029677;28;1314;-69
2023/06/13 07:19:41;;;;;;;;;;;21.00;72.90;;;;;;5025038;28;1898;-69
2023/06/13 07:22:09;;;;;;;;;;;21.00;72.90;;;;;;5028426;28;1442;-69
2023/06/13 07:24:35;;;;;;;;;;;21.00;72.90;;;;;;5027654;28;1530;-69
2023/06/13 07:27:00;;;;;;;;;;;21.00;72.90;;;;;;5029555;28;848;-69
2023/06/13 07:29:26;;;;;;;;;;;21.00;72.90;;;;;;5024776;28;1489;-69
2023/06/13 07:31:51;;;;;;;;;;;21.00;72.90;;;;;;5023347;28;892;-69
2023/06/13 07:34:17;;;;;;;;;;;21.00;72.90;;;;;;5026015;28;1252;-69
2023/06/13 07:36:43;;;;;;;;;;;21.00;73.00;;;;;;5027598;28;1136;-69
2023/06/13 07:39:12;;;;;;;;;;;21.00;72.90;;;;;;5027159;28;1992;-69
2023/06/13 07:41:38;;;;;;;;;;;21.00;73.00;;;;;;5028490;28;879;-69
2023/06/13 07:44:03;;;;;;;;;;;21.00;74.00;;;;;;5028604;28;1206;-69
2023/06/13 07:46:29;;;;;;;;;;;21.00;73.20;;;;;;5028690;28;849;-69
2023/06/13 07:48:54;;;;;;;;;;;21.00;73.10;;;;;;5026747;28;824;-69
2023/06/13 07:51:20;;;;;;;;;;;21.00;73.00;;;;;;5028665;28;948;-69
2023/06/13 07:53:46;;;;;;;;;;;21.00;73.00;;;;;;5025287;28;1489;-69
2023/06/13 07:56:12;;;;;;;;;;;21.00;73.00;;;;;;5027962;28;848;-68
2023/06/13 07:58:38;;;;;;;;;;;21.00;73.00;;;;;;5027968;28;847;-69
2023/06/13 08:01:03;;;;;;;;;;;21.00;73.10;;;;;;5026053;28;1981;-68
2023/06/13 08:03:29;;;;;;;;;;;21.00;73.10;;;;;;5022889;28;1369;-69
2023/06/13 08:05:55;;;;;;;;;;;21.00;73.30;;;;;;5028321;28;850;-69
2023/06/13 08:08:20;;;;;;;;;;;21.00;73.60;;;;;;5028596;28;891;-69
2023/06/13 08:10:45;;;;;;;;;;;21.00;73.90;;;;;;5026358;28;2131;-69
2023/06/13 08:13:11;;;;;;;;;;;21.00;73.70;;;;;;5028241;28;1872;-70
2023/06/13 08:15:36;;;;;;;;;;;21.10;73.90;;;;;;5026599;28;1431;-69
2023/06/13 08:18:02;;;;;;;;;;;21.10;73.80;;;;;;5028321;28;1253;-69
2023/06/13 08:20:27;;;;;;;;;;;21.10;73.70;;;;;;5028388;28;1977;-69
2023/06/13 08:22:53;;;;;;;;;;;21.10;73.60;;;;;;5027427;28;887;-69
2023/06/13 08:25:18;;;;;;;;;;;21.10;73.40;;;;;;5025551;28;1307;-69
2023/06/13 08:27:44;;;;;;;;;;;21.00;73.20;;;;;;5027788;28;1078;-69
2023/06/13 08:30:10;;;;;;;;;;;21.00;73.20;;;;;;5022794;28;817;-70
2023/06/13 08:32:35;;;;;;;;;;;21.00;73.20;;;;;;5019455;28;1053;-68
2023/06/13 08:35:01;;;;;;;;;;;21.00;73.20;;;;;;5026345;28;1323;-69
2023/06/13 08:37:27;;;;;;;;;;;21.00;73.40;;;;;;5028458;28;851;-69
2023/06/13 08:39:52;;;;;;;;;;;21.00;73.40;;;;;;5025122;28;1906;-68
2023/06/13 08:42:18;;;;;;;;;;;21.00;73.30;;;;;;5025493;28;855;-69
2023/06/13 08:44:43;;;;;;;;;;;21.00;73.40;;;;;;5027123;28;1259;-69
2023/06/13 08:47:10;;;;;;;;;;;21.00;73.30;;;;;;5028158;28;923;-69
2023/06/13 08:49:35;;;;;;;;;;;21.00;73.30;;;;;;5031183;28;888;-69
2023/06/13 08:52:02;;;;;;;;;;;21.00;73.30;;;;;;5031585;28;793;-68
2023/06/13 08:54:27;;;;;;;;;;;21.00;73.30;;;;;;5029842;28;1237;-69
2023/06/13 08:56:53;;;;;;;;;;;21.10;73.50;;;;;;5029236;28;828;-69
2023/06/13 08:59:19;;;;;;;;;;;21.10;73.50;;;;;;5021686;28;1907;-69
2023/06/13 09:01:45;;;;;;;;;;;21.10;73.40;;;;;;5028909;28;808;-69
2023/06/13 09:04:11;;;;;;;;;;;21.10;73.40;;;;;;5028644;28;1362;-68
2023/06/13 09:06:37;;;;;;;;;;;21.10;73.30;;;;;;5017929;28;939;-69
2023/06/13 09:09:02;;;;;;;;;;;21.10;73.30;;;;;;5029997;28;832;-69
2023/06/13 09:11:29;;;;;;;;;;;21.10;73.30;;;;;;5026084;28;1326;-69
2023/06/13 09:13:58;;;;;;;;;;;21.10;73.30;;;;;;5030612;28;1357;-69
2023/06/13 09:16:23;;;;;;;;;;;21.10;73.20;;;;;;5030906;28;963;-69
2023/06/13 09:18:49;;;;;;;;;;;21.10;73.20;;;;;;5031446;28;1132;-69
2023/06/13 09:21:15;;;;;;;;;;;21.10;73.20;;;;;;5029453;28;1898;-69
2023/06/13 09:23:40;;;;;;;;;;;21.10;73.30;;;;;;5030416;28;1354;-69
2023/06/13 09:26:06;;;;;;;;;;;21.10;73.30;;;;;;5028955;28;963;-69
2023/06/13 09:28:39;;;;;;;;;;;21.10;73.30;;;;;;5030819;28;1720;-69
2023/06/13 09:31:06;;;;;;;;;;;21.10;73.30;;;;;;5031132;28;1250;-69
2023/06/13 09:33:31;;;;;;;;;;;21.10;73.30;;;;;;5021148;28;1339;-69
2023/06/13 09:35:57;;;;;;;;;;;21.10;73.40;;;;;;5030572;28;830;-69
2023/06/13 09:38:23;;;;;;;;;;;21.10;73.40;;;;;;5029860;28;838;-68
2023/06/13 09:40:49;;;;;;;;;;;21.10;73.50;;;;;;5030276;28;1965;-68
2023/06/13 09:43:15;;;;;;;;;;;21.10;73.50;;;;;;5030242;28;1220;-69
2023/06/13 09:45:42;;;;;;;;;;;21.10;73.50;;;;;;5030169;28;1303;-69
2023/06/13 09:48:08;;;;;;;;;;;21.00;73.40;;;;;;5030574;28;888;-69
2023/06/13 09:50:34;;;;;;;;;;;21.00;73.40;;;;;;5028739;28;1007;-71
2023/06/13 09:53:01;;;;;;;;;;;21.00;73.40;;;;;;5030614;28;2145;-69
2023/06/13 09:55:27;;;;;;;;;;;21.00;73.50;;;;;;5030597;28;1467;-70
2023/06/13 09:57:52;;;;;;;;;;;21.10;73.60;;;;;;5029652;28;1545;-69
2023/06/13 10:00:18;;;;;;;;;;;21.10;73.60;;;;;;5029380;28;1906;-70
2023/06/13 10:02:43;;;;;;;;;;;21.10;73.70;;;;;;5029435;28;883;-69
2023/06/13 10:05:09;;;;;;;;;;;21.10;73.60;;;;;;5029990;28;1358;-70
2023/06/13 10:07:35;;;;;;;;;;;21.00;73.60;;;;;;5028556;28;1018;-71
2023/06/13 10:10:00;;;;;;;;;;;21.10;73.60;;;;;;5029685;28;852;-70
2023/06/13 10:12:26;;;;;;;;;;;21.00;73.60;;;;;;5028104;28;907;-69
2023/06/13 10:14:54;;;;;;;;;;;21.10;73.60;;;;;;5030153;28;1289;-69
2023/06/13 10:17:20;;;;;;;;;;;21.10;73.50;;;;;;5029104;28;796;-68
2023/06/13 10:19:46;;;;;;;;;;;21.10;73.60;;;;;;5025225;28;1902;-70
2023/06/13 10:22:11;;;;;;;;;;;21.10;73.50;;;;;;5028692;28;895;-70
2023/06/13 10:24:37;;;;;;;;;;;21.10;73.60;;;;;;5023667;28;1342;-70
2023/06/13 10:27:03;;;;;;;;;;;21.10;73.50;;;;;;5030212;28;1476;-70
2023/06/13 10:29:35;;;;;;;;;;;21.10;73.60;;;;;;5031084;28;1073;-69
2023/06/13 10:32:06;;;;;;;;;;;21.10;73.60;;;;;;5030266;28;926;-70
2023/06/13 10:34:34;;;;;;;;;;;21.10;73.50;;;;;;5029901;28;1239;-70
2023/06/13 10:37:08;;;;;;;;;;;21.10;74.30;;;;;;5029750;28;831;-68
2023/06/13 10:39:34;;;;;;;;;;;21.10;74.30;;;;;;5024814;28;1961;-68
2023/06/13 10:42:02;;;;;;;;;;;21.10;73.50;;;;;;5028512;28;954;-71
2023/06/13 10:44:30;;;;;;;;;;;21.10;73.50;;;;;;5021554;28;1280;-70
2023/06/13 10:46:55;;;;;;;;;;;21.10;73.50;;;;;;5028922;28;876;-70
2023/06/13 10:49:21;;;;;;;;;;;21.10;73.50;;;;;;5023250;28;944;-70
2023/06/13 10:51:47;;;;;;;;;;;21.10;73.50;;;;;;5027351;28;873;-70
2023/06/13 10:54:13;;;;;;;;;;;21.10;73.50;;;;;;5027511;28;1268;-70
2023/06/13 10:56:41;;;;;;;;;;;21.10;73.50;;;;;;5023717;28;923;-70
2023/06/13 10:59:07;;;;;;;;;;;21.10;73.50;;;;;;5023759;28;1902;-70
2023/06/13 11:01:33;;;;;;;;;;;21.10;73.40;;;;;;5026894;28;935;-70
2023/06/13 11:04:05;;;;;;;;;;;21.10;73.70;;;;;;5028242;28;1272;-70
2023/06/13 11:06:31;;;;;;;;;;;21.10;73.80;;;;;;5029116;28;868;-69
2023/06/13 11:09:18;;;;;;;;;;;21.10;72.90;;;;;;5028915;28;879;-69
2023/06/13 11:12:05;;;;;;;;;;;21.10;71.40;;;;;;5027794;28;804;-69
2023/06/13 11:14:33;;;;;;;;;;;21.10;71.50;;;;;;5027483;28;1283;-68
2023/06/13 11:16:59;;;;;;;;;;;21.00;71.30;;;;;;5026423;28;1033;-69
2023/06/13 11:19:26;;;;;;;;;;;21.00;70.90;;;;;;5029486;28;1898;-69
2023/06/13 11:22:06;;;;;;;;;;;21.00;70.60;;;;;;5026280;28;924;-69
2023/06/13 11:24:32;;;;;;;;;;;21.00;70.40;;;;;;5019902;28;1272;-69
2023/06/13 11:26:57;;;;;;;;;;;21.00;69.90;;;;;;5028547;28;1545;-69
2023/06/13 11:29:23;;;;;;;;;;;21.00;69.80;;;;;;5025462;28;824;-69
2023/06/13 11:31:52;;;;;;;;;;;20.90;69.20;;;;;;5028899;28;806;-70
2023/06/13 11:34:18;;;;;;;;;;;20.90;69.10;;;;;;5028433;28;1246;-70
2023/06/13 11:36:44;;;;;;;;;;;20.90;69.00;;;;;;5026740;28;932;-69
2023/06/13 11:39:11;;;;;;;;;;;20.90;68.80;;;;;;5025823;28;1903;-69
2023/06/13 11:41:36;;;;;;;;;;;20.90;68.60;;;;;;5027760;28;900;-69
2023/06/13 11:44:02;;;;;;;;;;;20.90;68.30;;;;;;5027615;28;1225;-69
2023/06/13 11:46:27;;;;;;;;;;;20.90;67.80;;;;;;5027955;28;828;-69
2023/06/13 11:48:54;;;;;;;;;;;20.90;67.60;;;;;;5026002;28;872;-69
2023/06/13 11:51:19;;;;;;;;;;;20.90;67.80;;;;;;5027742;28;872;-69
2023/06/13 11:53:55;;;;;;;;;;;20.90;68.10;;;;;;5026685;28;1343;-69
2023/06/13 11:56:23;;;;;;;;;;;20.90;66.70;;;;;;5023233;28;912;-69
2023/06/13 11:58:49;;;;;;;;;;;20.80;66.80;;;;;;5025874;28;1023;-69
2023/06/13 12:01:16;;;;;;;;;;;20.80;66.90;;;;;;5027707;28;1902;-69
2023/06/13 12:03:44;;;;;;;;;;;20.80;67.10;;;;;;5016813;28;1255;-70
2023/06/13 12:06:10;;;;;;;;;;;20.80;67.10;;;;;;5011196;28;1459;-68
2023/06/13 12:08:36;;;;;;;;;;;20.80;67.40;;;;;;5024874;28;1244;-69
2023/06/13 12:11:02;;;;;;;;;;;20.80;67.30;;;;;;5026745;28;898;-69
2023/06/13 12:13:28;;;;;;;;;;;20.80;67.10;;;;;;5022227;28;1303;-69
2023/06/13 12:15:53;;;;;;;;;;;20.80;67.10;;;;;;5027305;28;1599;-69
2023/06/13 12:18:18;;;;;;;;;;;20.80;67.00;;;;;;5023316;28;895;-68
2023/06/13 12:20:48;;;;;;;;;;;20.80;66.40;;;;;;5028007;28;1963;-67
2023/06/13 12:23:15;;;;;;;;;;;20.80;66.20;;;;;;5027484;28;899;-69
2023/06/13 12:25:40;;;;;;;;;;;20.80;65.90;;;;;;5029143;28;1287;-69
2023/06/13 12:28:06;;;;;;;;;;;20.80;66.50;;;;;;5030171;28;1573;-69
2023/06/13 12:30:39;;;;;;;;;;;20.80;66.20;;;;;;5031608;28;1002;-69
2023/06/13 12:33:15;;;;;;;;;;;20.80;66.00;;;;;;5030452;28;942;-69
2023/06/13 12:35:51;;;;;;;;;;;20.80;66.10;;;;;;5029615;28;1303;-69
2023/06/13 12:38:17;;;;;;;;;;;20.80;65.80;;;;;;5026528;28;899;-68
2023/06/13 12:40:45;;;;;;;;;;;20.80;66.00;;;;;;5029249;28;1967;-69
2023/06/13 12:43:11;;;;;;;;;;;20.80;65.90;;;;;;5032317;28;888;-69
2023/06/13 12:45:36;;;;;;;;;;;20.80;65.60;;;;;;5026456;28;1523;-69
2023/06/13 12:48:02;;;;;;;;;;;20.80;65.10;;;;;;5027360;28;879;-69
2023/06/13 12:50:30;;;;;;;;;;;20.70;65.40;;;;;;5028981;28;943;-69
2023/06/13 12:53:05;;;;;;;;;;;20.70;65.10;;;;;;5028151;28;844;-68
2023/06/13 12:55:32;;;;;;;;;;;20.70;64.70;;;;;;5029259;28;2164;-69
2023/06/13 12:58:00;;;;;;;;;;;20.80;64.80;;;;;;5031089;28;936;-68
2023/06/13 13:00:26;;;;;;;;;;;20.80;64.80;;;;;;5030504;28;1910;-68
2023/06/13 13:02:51;;;;;;;;;;;20.70;64.80;;;;;;5030049;28;821;-68
2023/06/13 13:05:17;;;;;;;;;;;20.70;64.80;;;;;;5028898;28;1380;-68
2023/06/13 13:07:42;;;;;;;;;;;20.80;63.90;;;;;;5032003;28;919;-68
2023/06/13 13:10:08;;;;;;;;;;;20.70;63.70;;;;;;5027560;28;875;-68
2023/06/13 13:12:34;;;;;;;;;;;20.70;63.80;;;;;;5030637;28;844;-68
2023/06/13 13:14:59;;;;;;;;;;;20.70;63.50;;;;;;5029609;28;1249;-68
2023/06/13 13:17:25;;;;;;;;;;;20.70;63.80;;;;;;5028275;28;1292;-68
2023/06/13 13:19:53;;;;;;;;;;;20.70;63.90;;;;;;5027590;28;1914;-67
2023/06/13 13:22:21;;;;;;;;;;;20.70;64.10;;;;;;5029721;28;879;-68
2023/06/13 13:24:46;;;;;;;;;;;20.70;63.40;;;;;;5030162;28;1262;-68
2023/06/13 13:27:12;;;;;;;;;;;20.70;63.30;;;;;;5030727;28;1077;-68
2023/06/13 13:29:38;;;;;;;;;;;20.70;62.90;;;;;;5024704;28;1441;-69
2023/06/13 13:32:03;;;;;;;;;;;20.70;63.30;;;;;;5027984;28;1331;-69
2023/06/13 13:34:29;;;;;;;;;;;20.70;62.80;;;;;;5027833;28;1312;-68
2023/06/13 13:36:55;;;;;;;;;;;20.70;62.40;;;;;;5028394;28;1413;-69
2023/06/13 13:39:20;;;;;;;;;;;20.70;62.40;;;;;;5028381;28;1914;-69
2023/06/13 13:41:46;;;;;;;;;;;20.70;62.70;;;;;;5009714;28;1414;-69
2023/06/13 13:44:11;;;;;;;;;;;20.70;62.80;;;;;;5031035;28;1359;-69
2023/06/13 13:46:37;;;;;;;;;;;20.70;62.70;;;;;;5025267;28;769;-69
2023/06/13 13:49:02;;;;;;;;;;;20.70;62.60;;;;;;5024022;28;808;-68
2023/06/13 13:51:29;;;;;;;;;;;20.70;62.10;;;;;;5030090;28;878;-69
2023/06/13 13:53:55;;;;;;;;;;;20.70;62.10;;;;;;5030588;28;1274;-69
2023/06/13 13:56:20;;;;;;;;;;;20.70;62.20;;;;;;5027287;28;840;-69
2023/06/13 13:58:46;;;;;;;;;;;20.70;62.30;;;;;;5030749;28;1046;-70
2023/06/13 14:01:11;;;;;;;;;;;20.70;62.10;;;;;;5026483;28;1910;-68
2023/06/13 14:03:37;;;;;;;;;;;20.60;61.50;;;;;;5029694;28;1333;-68
2023/06/13 14:06:03;;;;;;;;;;;20.70;61.70;;;;;;5026482;28;1193;-69
2023/06/13 14:08:28;;;;;;;;;;;20.70;61.40;;;;;;5029622;28;872;-69
2023/06/13 14:10:55;;;;;;;;;;;20.60;61.00;;;;;;5030606;28;1006;-68
2023/06/13 14:13:21;;;;;;;;;;;20.60;61.30;;;;;;5030265;28;889;-69
2023/06/13 14:15:46;;;;;;;;;;;20.60;61.20;;;;;;5030537;28;1221;-68
2023/06/13 14:18:12;;;;;;;;;;;20.60;60.90;;;;;;5030970;28;1006;-68
2023/06/13 14:20:38;;;;;;;;;;;20.60;60.80;;;;;;5028358;28;1939;-69
2023/06/13 14:23:04;;;;;;;;;;;20.60;61.00;;;;;;5030068;28;900;-69
2023/06/13 14:25:29;;;;;;;;;;;20.60;61.00;;;;;;5029285;28;1362;-69
2023/06/13 14:27:54;;;;;;;;;;;20.70;60.50;;;;;;5028765;28;1760;-68
2023/06/13 14:30:20;;;;;;;;;;;20.70;60.70;;;;;;5030133;28;812;-68
2023/06/13 14:32:46;;;;;;;;;;;20.60;60.90;;;;;;5027740;28;888;-68